createdAt,value
2017-12-15T00:01:12.721Z,0.20
2017-12-15T00:03:40.439Z,0.18
2017-12-15T00:06:08.282Z,-0.02
2017-12-15T00:08:36.014Z,-0.07
2017-12-15T00:11:03.856Z,-0.11
2017-12-15T00:13:31.616Z,-0.06
2017-12-15T00:15:59.360Z,0.14
2017-12-15T00:18:27.156Z,0.21
2017-12-15T00:20:54.868Z,0.13
2017-12-15T00:23:22.695Z,0.04
2017-12-15T00:25:50.456Z,0.05
2017-12-15T00:28:18.192Z,-0.04
2017-12-15T00:30:45.966Z,0.05
2017-12-15T00:33:13.685Z,0.06
2017-12-15T00:35:41.780Z,-0.01
2017-12-15T00:38:09.527Z,-0.02
2017-12-15T00:40:37.221Z,0.03
2017-12-15T00:43:04.995Z,-0.06
2017-12-15T00:45:32.921Z,-0.11
2017-12-15T00:48:00.689Z,-0.12
2017-12-15T00:50:28.446Z,-0.16
2017-12-15T00:52:56.174Z,-0.09
2017-12-15T00:55:23.951Z,-0.18
2017-12-15T00:57:51.695Z,-0.20
2017-12-15T01:00:19.466Z,-0.17
2017-12-15T01:02:47.257Z,-0.18
2017-12-15T01:05:14.955Z,-0.21
2017-12-15T01:07:42.678Z,-0.23
2017-12-15T01:10:10.454Z,-0.20
2017-12-15T01:12:38.127Z,-0.22
2017-12-15T01:15:05.964Z,-0.13
2017-12-15T01:17:33.712Z,-0.26
2017-12-15T01:20:01.474Z,-0.22
2017-12-15T01:22:29.338Z,-0.24
2017-12-15T01:24:57.033Z,-0.30
2017-12-15T01:27:24.830Z,-0.28
2017-12-15T01:29:52.592Z,-0.24
2017-12-15T01:32:20.285Z,-0.24
2017-12-15T01:34:48.015Z,-0.25
2017-12-15T01:37:15.796Z,-0.31
2017-12-15T01:39:43.544Z,-0.37
2017-12-15T01:42:11.309Z,-0.38
2017-12-15T01:44:39.110Z,-0.29
2017-12-15T01:47:06.812Z,-0.30
2017-12-15T01:49:34.651Z,-0.32
2017-12-15T01:52:02.404Z,-0.40
2017-12-15T01:54:30.226Z,-0.17
2017-12-15T01:56:57.986Z,-0.32
2017-12-15T01:59:25.773Z,-0.45
2017-12-15T02:01:53.509Z,-0.37
2017-12-15T02:04:21.259Z,-0.22
2017-12-15T02:06:48.995Z,-0.16
2017-12-15T02:09:16.907Z,-0.15
2017-12-15T02:11:44.618Z,-0.21
2017-12-15T02:14:12.322Z,-0.23
2017-12-15T02:16:40.095Z,-0.21
2017-12-15T02:19:07.856Z,-0.23
2017-12-15T02:21:35.656Z,-0.22
2017-12-15T02:24:03.464Z,-0.21
2017-12-15T02:26:31.152Z,-0.23
2017-12-15T02:28:58.914Z,-0.31
2017-12-15T02:31:26.677Z,-0.37
2017-12-15T02:33:54.439Z,-0.26
2017-12-15T02:36:22.186Z,-0.32
2017-12-15T02:38:49.876Z,-0.30
2017-12-15T02:41:17.727Z,-0.20
2017-12-15T02:43:45.452Z,-0.23
2017-12-15T02:46:13.379Z,-0.19
2017-12-15T02:48:41.119Z,-0.16
2017-12-15T02:51:08.824Z,-0.19
2017-12-15T02:53:36.582Z,-0.19
2017-12-15T02:56:04.311Z,-0.24
2017-12-15T02:58:32.157Z,-0.17
2017-12-15T03:00:59.884Z,-0.09
2017-12-15T03:03:27.628Z,-0.24
2017-12-15T03:05:55.355Z,-0.25
2017-12-15T03:08:23.117Z,-0.24
2017-12-15T03:10:50.908Z,-0.18
2017-12-15T03:13:18.652Z,-0.18
2017-12-15T03:15:46.435Z,-0.17
2017-12-15T03:18:14.215Z,-0.11
2017-12-15T03:20:41.897Z,-0.12
2017-12-15T03:23:09.666Z,-0.11
2017-12-15T03:25:37.610Z,-0.11
2017-12-15T03:28:05.333Z,-0.08
2017-12-15T03:30:33.101Z,-0.08
2017-12-15T03:33:01.728Z,-0.09
2017-12-15T03:35:29.456Z,-0.22
2017-12-15T03:37:57.233Z,-0.22
2017-12-15T03:40:24.955Z,-0.11
2017-12-15T03:42:52.716Z,-0.05
2017-12-15T03:45:20.529Z,-0.03
2017-12-15T03:47:48.270Z,-0.03
2017-12-15T03:50:15.951Z,-0.04
2017-12-15T03:52:43.627Z,-0.07
2017-12-15T03:55:11.357Z,0.03
2017-12-15T03:57:39.120Z,0.07
2017-12-15T04:00:06.888Z,0.03
2017-12-15T04:02:34.595Z,0.06
2017-12-15T04:05:03.541Z,0.09
2017-12-15T04:07:31.309Z,0.12
2017-12-15T04:09:59.009Z,0.08
2017-12-15T04:12:26.754Z,0.08
2017-12-15T04:14:54.442Z,0.04
2017-12-15T04:17:22.269Z,0.07
2017-12-15T04:19:50.004Z,-0.08
2017-12-15T04:22:17.839Z,-0.02
2017-12-15T04:24:45.642Z,-0.03
2017-12-15T04:27:13.448Z,-0.15
2017-12-15T04:29:41.219Z,-0.12
2017-12-15T04:32:08.920Z,-0.12
2017-12-15T04:34:36.696Z,-0.08
2017-12-15T04:37:04.469Z,-0.05
2017-12-15T04:39:32.179Z,-0.05
2017-12-15T04:41:59.937Z,0.02
2017-12-15T04:44:27.718Z,0.07
2017-12-15T04:46:55.420Z,-0.08
2017-12-15T04:49:23.179Z,-0.01
2017-12-15T04:51:50.897Z,-0.13
2017-12-15T04:54:18.663Z,-0.12
2017-12-15T04:56:46.486Z,-0.07
2017-12-15T04:59:14.171Z,0.17
2017-12-15T05:01:41.932Z,0.16
2017-12-15T05:04:09.643Z,0.00
2017-12-15T05:06:38.068Z,0.01
2017-12-15T05:09:05.929Z,0.00
2017-12-15T05:11:33.793Z,0.10
2017-12-15T05:14:01.557Z,0.08
2017-12-15T05:16:29.307Z,0.09
2017-12-15T05:18:57.243Z,0.02
2017-12-15T05:21:24.965Z,0.01
2017-12-15T05:23:52.710Z,0.01
2017-12-15T05:26:20.410Z,0.00
2017-12-15T05:28:48.135Z,0.00
2017-12-15T05:31:15.880Z,0.04
2017-12-15T05:33:43.587Z,0.25
2017-12-15T05:36:11.597Z,0.35
2017-12-15T05:38:39.298Z,0.16
2017-12-15T05:41:07.141Z,0.15
2017-12-15T05:43:35.139Z,0.16
2017-12-15T05:46:02.969Z,0.14
2017-12-15T05:48:30.685Z,0.11
2017-12-15T05:50:58.428Z,0.15
2017-12-15T05:53:26.164Z,0.12
2017-12-15T05:55:53.948Z,0.13
2017-12-15T05:58:21.799Z,0.13
2017-12-15T06:00:49.520Z,0.14
2017-12-15T06:03:17.288Z,0.17
2017-12-15T06:05:44.995Z,0.19
2017-12-15T06:08:12.754Z,0.19
2017-12-15T06:10:40.452Z,0.20
2017-12-15T06:13:08.188Z,0.24
2017-12-15T06:15:36.062Z,0.26
2017-12-15T06:18:03.871Z,0.28
2017-12-15T06:20:31.576Z,0.69
2017-12-15T06:22:59.328Z,0.35
2017-12-15T06:25:27.104Z,0.36
2017-12-15T06:27:54.822Z,0.23
2017-12-15T06:30:22.592Z,0.19
2017-12-15T06:32:50.336Z,0.29
2017-12-15T06:35:18.116Z,0.55
2017-12-15T06:37:45.808Z,0.59
2017-12-15T06:40:13.528Z,0.40
2017-12-15T06:42:41.353Z,0.28
2017-12-15T06:45:09.102Z,0.19
2017-12-15T06:47:36.868Z,0.08
2017-12-15T06:50:04.586Z,0.10
2017-12-15T06:52:32.338Z,0.16
2017-12-15T06:55:00.365Z,0.24
2017-12-15T06:57:28.127Z,0.19
2017-12-15T06:59:55.895Z,0.23
2017-12-15T07:02:23.733Z,0.26
2017-12-15T07:04:51.520Z,0.31
2017-12-15T07:07:19.243Z,0.35
2017-12-15T07:09:47.059Z,0.38
2017-12-15T07:12:15.112Z,0.44
2017-12-15T07:14:42.943Z,0.45
2017-12-15T07:17:11.384Z,0.49
2017-12-15T07:19:39.191Z,0.51
2017-12-15T07:22:07.296Z,0.46
2017-12-15T07:24:35.132Z,0.52
2017-12-15T07:27:02.888Z,0.57
2017-12-15T07:29:30.691Z,0.57
2017-12-15T07:31:58.435Z,0.59
2017-12-15T07:34:26.255Z,0.58
2017-12-15T07:36:53.951Z,0.62
2017-12-15T07:39:21.725Z,0.62
2017-12-15T07:41:49.501Z,0.63
2017-12-15T07:44:17.297Z,0.63
2017-12-15T07:46:45.002Z,0.62
2017-12-15T07:49:13.664Z,0.69
2017-12-15T07:51:41.620Z,0.78
2017-12-15T07:54:09.377Z,0.87
2017-12-15T07:56:37.187Z,0.74
2017-12-15T07:59:04.949Z,0.71
2017-12-15T08:01:32.778Z,0.74
2017-12-15T08:04:01.165Z,0.78
2017-12-15T08:06:28.949Z,0.83
2017-12-15T08:08:57.362Z,0.71
2017-12-15T08:11:25.121Z,0.59
2017-12-15T08:13:53.066Z,0.56
2017-12-15T08:16:20.906Z,0.68
2017-12-15T08:18:48.663Z,0.76
2017-12-15T08:21:16.407Z,0.83
2017-12-15T08:23:44.243Z,0.81
2017-12-15T08:26:12.102Z,0.75
2017-12-15T08:28:39.908Z,0.82
2017-12-15T08:31:07.639Z,0.91
2017-12-15T08:33:35.381Z,0.87
2017-12-15T08:36:03.215Z,0.95
2017-12-15T08:38:31.183Z,0.92
2017-12-15T08:40:59.012Z,0.90
2017-12-15T08:43:26.868Z,1.01
2017-12-15T08:45:54.812Z,1.13
2017-12-15T08:48:23.818Z,1.10
2017-12-15T08:50:51.660Z,1.11
2017-12-15T08:53:19.371Z,1.05
2017-12-15T08:55:47.191Z,1.10
2017-12-15T08:58:14.958Z,1.19
2017-12-15T09:00:42.782Z,1.25
2017-12-15T09:03:10.530Z,1.25
2017-12-15T09:05:38.312Z,1.23
2017-12-15T09:08:06.063Z,1.25
2017-12-15T09:10:33.872Z,1.25
2017-12-15T09:13:01.667Z,1.35
2017-12-15T09:15:29.388Z,1.20
2017-12-15T09:17:57.183Z,1.37
2017-12-15T09:20:24.863Z,1.37
2017-12-15T09:22:52.769Z,1.33
2017-12-15T09:25:20.548Z,1.21
2017-12-15T09:27:48.272Z,1.17
2017-12-15T09:30:16.106Z,1.22
2017-12-15T09:32:44.784Z,1.33
2017-12-15T09:35:12.460Z,1.50
2017-12-15T09:37:40.299Z,1.58
2017-12-15T09:40:08.105Z,1.40
2017-12-15T09:42:35.924Z,1.26
2017-12-15T09:45:03.852Z,1.33
2017-12-15T09:47:31.626Z,1.44
2017-12-15T09:49:59.313Z,1.56
2017-12-15T09:52:27.725Z,1.58
2017-12-15T09:54:55.440Z,1.56
2017-12-15T09:57:23.372Z,1.42
2017-12-15T09:59:51.179Z,1.35
2017-12-15T10:02:18.916Z,1.63
2017-12-15T10:04:46.685Z,1.63
2017-12-15T10:07:14.393Z,1.59
2017-12-15T10:09:42.134Z,1.59
2017-12-15T10:12:09.889Z,1.65
2017-12-15T10:14:37.804Z,1.74
2017-12-15T10:17:05.489Z,1.75
2017-12-15T10:19:33.971Z,1.74
2017-12-15T10:22:01.921Z,1.85
2017-12-15T10:24:29.687Z,1.84
2017-12-15T10:26:57.438Z,1.87
2017-12-15T10:29:25.524Z,1.69
2017-12-15T10:31:53.360Z,1.66
2017-12-15T10:34:21.042Z,1.63
2017-12-15T10:36:48.936Z,1.68
2017-12-15T10:39:16.707Z,1.77
2017-12-15T10:41:44.468Z,1.79
2017-12-15T10:44:12.180Z,1.81
2017-12-15T10:46:39.945Z,1.80
2017-12-15T10:49:07.665Z,1.82
2017-12-15T10:51:35.349Z,1.67
2017-12-15T10:54:03.051Z,1.49
2017-12-15T10:56:30.864Z,1.58
2017-12-15T10:58:58.578Z,1.72
2017-12-15T11:01:27.264Z,1.72
2017-12-15T11:03:54.966Z,1.72
2017-12-15T11:06:22.714Z,1.71
2017-12-15T11:08:51.257Z,1.67
2017-12-15T11:11:18.987Z,1.61
2017-12-15T11:13:46.774Z,1.59
2017-12-15T11:16:14.664Z,1.68
2017-12-15T11:18:42.397Z,1.73
2017-12-15T11:21:10.147Z,1.79
2017-12-15T11:23:37.889Z,1.90
2017-12-15T11:26:05.563Z,2.02
2017-12-15T11:28:33.973Z,2.07
2017-12-15T11:31:01.703Z,2.15
2017-12-15T11:33:29.464Z,2.23
2017-12-15T11:35:57.230Z,2.36
2017-12-15T11:38:24.936Z,2.42
2017-12-15T11:40:52.965Z,2.41
2017-12-15T11:43:20.682Z,2.21
2017-12-15T11:45:48.388Z,2.23
2017-12-15T11:48:16.235Z,2.27
2017-12-15T11:50:43.969Z,2.37
2017-12-15T11:53:11.728Z,2.21
2017-12-15T11:55:40.158Z,1.82
2017-12-15T11:58:07.946Z,2.03
2017-12-15T12:00:35.701Z,2.10
2017-12-15T12:03:03.476Z,2.31
2017-12-15T12:05:31.355Z,2.07
2017-12-15T12:07:59.171Z,1.99
2017-12-15T12:10:27.153Z,2.11
2017-12-15T12:12:54.988Z,2.15
2017-12-15T12:15:22.866Z,2.12
2017-12-15T12:17:50.624Z,2.21
2017-12-15T12:20:18.519Z,2.18
2017-12-15T12:22:46.258Z,2.13
2017-12-15T12:25:14.083Z,2.15
2017-12-15T12:27:41.855Z,2.14
2017-12-15T12:30:09.690Z,2.11
2017-12-15T12:32:37.421Z,2.06
2017-12-15T12:35:05.156Z,2.03
2017-12-15T12:37:32.990Z,1.99
2017-12-15T12:40:00.743Z,2.08
2017-12-15T12:42:29.245Z,2.06
2017-12-15T12:44:57.260Z,2.06
2017-12-15T12:47:25.104Z,2.03
2017-12-15T12:49:53.387Z,2.05
2017-12-15T12:52:21.127Z,2.06
2017-12-15T12:54:48.958Z,2.08
2017-12-15T12:57:16.676Z,2.07
2017-12-15T12:59:44.416Z,2.22
2017-12-15T13:02:12.272Z,2.02
2017-12-15T13:04:40.056Z,2.06
2017-12-15T13:07:07.865Z,2.18
2017-12-15T13:09:35.621Z,2.04
2017-12-15T13:12:03.446Z,1.88
2017-12-15T13:14:31.374Z,2.05
2017-12-15T13:17:00.069Z,2.06
2017-12-15T13:19:27.850Z,2.06
2017-12-15T13:21:55.659Z,2.07
2017-12-15T13:24:23.454Z,2.13
2017-12-15T13:26:51.208Z,2.08
2017-12-15T13:29:18.942Z,2.11
2017-12-15T13:31:47.036Z,2.04
2017-12-15T13:34:14.813Z,2.06
2017-12-15T13:36:42.595Z,1.98
2017-12-15T13:39:10.407Z,1.88
2017-12-15T13:41:38.860Z,1.94
2017-12-15T13:44:06.823Z,1.93
2017-12-15T13:46:34.536Z,2.11
2017-12-15T13:49:02.306Z,2.14
2017-12-15T13:51:30.035Z,1.97
2017-12-15T13:53:58.020Z,1.83
2017-12-15T13:56:25.759Z,1.70
2017-12-15T13:58:53.532Z,1.87
2017-12-15T14:01:21.407Z,2.03
2017-12-15T14:03:49.196Z,1.89
2017-12-15T14:06:17.026Z,1.85
2017-12-15T14:08:44.837Z,1.72
2017-12-15T14:11:13.525Z,1.71
2017-12-15T14:13:41.330Z,1.80
2017-12-15T14:16:10.363Z,1.80
2017-12-15T14:18:38.162Z,1.76
2017-12-15T14:21:05.903Z,1.79
2017-12-15T14:23:33.716Z,1.81
2017-12-15T14:26:01.472Z,1.68
2017-12-15T14:28:29.355Z,1.67
2017-12-15T14:30:57.191Z,1.64
2017-12-15T14:33:25.084Z,1.58
2017-12-15T14:35:52.886Z,1.63
2017-12-15T14:38:20.690Z,1.57
2017-12-15T14:40:48.533Z,1.62
2017-12-15T14:43:16.402Z,1.61
2017-12-15T14:45:44.729Z,1.60
2017-12-15T14:48:12.593Z,1.59
2017-12-15T14:50:40.532Z,1.59
2017-12-15T14:53:08.271Z,1.60
2017-12-15T14:55:36.117Z,1.56
2017-12-15T14:58:04.204Z,1.57
2017-12-15T15:00:32.502Z,1.58
2017-12-15T15:03:00.341Z,1.53
2017-12-15T15:05:28.071Z,1.50
2017-12-15T15:07:56.025Z,1.46
2017-12-15T15:10:23.881Z,1.41
2017-12-15T15:12:51.601Z,1.43
2017-12-15T15:15:19.606Z,1.37
2017-12-15T15:17:47.462Z,1.37
2017-12-15T15:20:16.078Z,1.45
2017-12-15T15:22:43.857Z,1.56
2017-12-15T15:25:12.706Z,1.62
2017-12-15T15:27:40.513Z,1.49
2017-12-15T15:30:08.283Z,1.42
2017-12-15T15:32:36.080Z,1.33
2017-12-15T15:35:03.886Z,1.33
2017-12-15T15:37:31.663Z,1.33
2017-12-15T15:39:59.417Z,1.28
2017-12-15T15:42:27.227Z,1.31
2017-12-15T15:44:55.022Z,1.23
2017-12-15T15:47:22.985Z,1.23
2017-12-15T15:49:50.755Z,1.29
2017-12-15T15:52:18.703Z,1.30
2017-12-15T15:54:46.527Z,1.31
2017-12-15T15:57:14.363Z,1.35
2017-12-15T15:59:42.228Z,1.25
2017-12-15T16:02:10.015Z,1.27
2017-12-15T16:04:37.957Z,1.26
2017-12-15T16:07:05.770Z,1.23
2017-12-15T16:09:33.704Z,1.26
2017-12-15T16:12:01.520Z,1.28
2017-12-15T16:14:29.295Z,1.30
2017-12-15T16:16:57.130Z,1.33
2017-12-15T16:19:25.843Z,1.23
2017-12-15T16:21:54.158Z,1.27
2017-12-15T16:24:21.949Z,1.26
2017-12-15T16:26:49.994Z,1.21
2017-12-15T16:29:17.765Z,1.26
2017-12-15T16:31:45.542Z,1.25
2017-12-15T16:34:13.344Z,1.18
2017-12-15T16:36:41.205Z,1.16
2017-12-15T16:39:09.417Z,1.21
2017-12-15T16:41:37.336Z,1.20
2017-12-15T16:44:05.523Z,1.24
2017-12-15T16:46:33.225Z,1.16
2017-12-15T16:49:01.076Z,1.07
2017-12-15T16:51:28.838Z,1.07
2017-12-15T16:53:56.817Z,1.11
2017-12-15T16:56:24.706Z,1.18
2017-12-15T16:58:52.610Z,1.13
2017-12-15T17:01:20.544Z,1.37
2017-12-15T17:03:48.736Z,1.28
2017-12-15T17:06:16.801Z,1.29
2017-12-15T17:08:45.567Z,1.27
2017-12-15T17:11:13.528Z,1.22
2017-12-15T17:13:41.665Z,1.23
2017-12-15T17:16:09.665Z,1.14
2017-12-15T17:18:37.689Z,1.14
2017-12-15T17:21:06.213Z,1.20
2017-12-15T17:23:34.233Z,1.26
2017-12-15T17:26:02.379Z,1.25
2017-12-15T17:28:30.238Z,1.27
2017-12-15T17:30:58.166Z,1.24
2017-12-15T17:33:26.067Z,1.23
2017-12-15T17:35:53.863Z,1.25
2017-12-15T17:38:22.420Z,1.23
2017-12-15T17:40:50.282Z,1.20
2017-12-15T17:43:18.250Z,1.23
2017-12-15T17:45:46.122Z,1.24
2017-12-15T17:48:13.904Z,1.24
2017-12-15T17:50:41.755Z,1.20
2017-12-15T17:53:09.720Z,1.10
2017-12-15T17:55:37.539Z,1.12
2017-12-15T17:58:05.404Z,1.17
2017-12-15T18:00:33.481Z,1.17
2017-12-15T18:03:01.213Z,1.16
2017-12-15T18:05:29.026Z,1.21
2017-12-15T18:07:58.257Z,1.22
2017-12-15T18:10:26.059Z,1.16
2017-12-15T18:12:54.685Z,1.16
2017-12-15T18:15:22.470Z,1.18
2017-12-15T18:17:50.261Z,1.25
2017-12-15T18:20:18.116Z,1.36
2017-12-15T18:22:45.874Z,1.36
2017-12-15T18:25:14.055Z,1.35
2017-12-15T18:27:41.946Z,1.30
2017-12-15T18:30:09.696Z,1.29
2017-12-15T18:32:37.400Z,1.27
2017-12-15T18:35:05.164Z,1.25
2017-12-15T18:37:32.895Z,1.29
2017-12-15T18:40:00.637Z,1.19
2017-12-15T18:42:28.410Z,1.13
2017-12-15T18:44:56.346Z,1.08
2017-12-15T18:47:24.214Z,1.13
2017-12-15T18:49:51.991Z,1.13
2017-12-15T18:52:19.867Z,1.14
2017-12-15T18:54:47.720Z,1.15
2017-12-15T18:57:15.596Z,1.17
2017-12-15T18:59:44.289Z,1.21
2017-12-15T19:02:12.141Z,1.24
2017-12-15T19:04:40.018Z,1.24
2017-12-15T19:07:07.914Z,1.18
2017-12-15T19:09:35.811Z,1.17
2017-12-15T19:12:03.611Z,1.13
2017-12-15T19:14:31.483Z,1.11
2017-12-15T19:16:59.362Z,1.13
2017-12-15T19:19:27.627Z,1.13
2017-12-15T19:21:55.538Z,1.06
2017-12-15T19:24:23.375Z,1.06
2017-12-15T19:26:51.504Z,1.04
2017-12-15T19:29:19.263Z,1.08
2017-12-15T19:31:47.227Z,0.98
2017-12-15T19:34:15.111Z,1.00
2017-12-15T19:36:42.985Z,1.05
2017-12-15T19:39:10.894Z,1.06
2017-12-15T19:41:39.088Z,1.04
2017-12-15T19:44:06.957Z,0.99
2017-12-15T19:46:35.532Z,0.83
2017-12-15T19:49:03.490Z,0.75
2017-12-15T19:51:31.752Z,0.74
2017-12-15T19:54:00.122Z,0.78
2017-12-15T19:56:27.912Z,0.76
2017-12-15T19:58:55.864Z,0.71
2017-12-15T20:01:23.718Z,0.73
2017-12-15T20:03:51.961Z,0.74
2017-12-15T20:06:19.758Z,0.75
2017-12-15T20:08:47.583Z,0.77
2017-12-15T20:11:16.216Z,0.81
2017-12-15T20:13:44.092Z,0.73
2017-12-15T20:16:12.006Z,0.68
2017-12-15T20:18:39.746Z,0.66
2017-12-15T20:21:07.999Z,0.77
2017-12-15T20:23:36.114Z,0.80
2017-12-15T20:26:04.583Z,0.81
2017-12-15T20:28:32.514Z,0.85
2017-12-15T20:31:00.366Z,0.87
2017-12-15T20:33:28.194Z,0.87
2017-12-15T20:35:56.085Z,0.87
2017-12-15T20:38:24.067Z,0.89
2017-12-15T20:40:54.789Z,0.87
2017-12-15T20:43:22.667Z,0.86
2017-12-15T20:45:50.557Z,0.91
2017-12-15T20:48:19.377Z,0.95
2017-12-15T20:50:47.371Z,0.94
2017-12-15T20:53:15.208Z,0.96
2017-12-15T20:55:43.746Z,0.98
2017-12-15T20:58:13.347Z,1.03
2017-12-15T21:00:41.267Z,1.01
2017-12-15T21:03:09.234Z,0.99
2017-12-15T21:05:37.004Z,1.13
2017-12-15T21:08:04.818Z,1.08
2017-12-15T21:10:32.642Z,0.85
2017-12-15T21:13:00.771Z,0.91
2017-12-15T21:15:28.809Z,0.92
2017-12-15T21:17:56.531Z,0.91
2017-12-15T21:20:24.435Z,0.93
2017-12-15T21:22:52.806Z,0.89
2017-12-15T21:25:20.561Z,0.86
2017-12-15T21:27:48.341Z,0.90
2017-12-15T21:30:16.164Z,0.92
2017-12-15T21:32:43.953Z,0.95
2017-12-15T21:35:11.844Z,0.97
2017-12-15T21:37:39.672Z,1.01
2017-12-15T21:40:07.455Z,1.01
2017-12-15T21:42:35.521Z,0.95
2017-12-15T21:45:03.322Z,0.95
2017-12-15T21:47:31.600Z,0.96
2017-12-15T21:50:00.423Z,0.96
2017-12-15T21:52:28.263Z,0.96
2017-12-15T21:54:55.974Z,0.94
2017-12-15T21:57:23.860Z,0.96
2017-12-15T21:59:51.575Z,0.81
2017-12-15T22:02:19.359Z,0.71
2017-12-15T22:04:47.130Z,0.67
2017-12-15T22:07:14.992Z,0.71
2017-12-15T22:09:42.849Z,0.82
2017-12-15T22:12:10.699Z,0.87
2017-12-15T22:14:38.475Z,0.90
2017-12-15T22:17:06.271Z,0.86
2017-12-15T22:19:34.060Z,0.84
2017-12-15T22:22:01.879Z,0.84
2017-12-15T22:24:29.674Z,0.84
2017-12-15T22:26:57.477Z,0.90
2017-12-15T22:29:25.315Z,0.94
2017-12-15T22:31:53.092Z,0.89
2017-12-15T22:34:20.827Z,0.81
2017-12-15T22:36:48.573Z,0.75
2017-12-15T22:39:16.285Z,0.77
2017-12-15T22:41:44.036Z,0.80
2017-12-15T22:44:11.746Z,0.81
2017-12-15T22:46:39.479Z,0.79
2017-12-15T22:49:07.201Z,0.66
2017-12-15T22:51:34.943Z,0.73
2017-12-15T22:54:02.702Z,0.76
2017-12-15T22:56:30.468Z,0.79
2017-12-15T22:58:58.167Z,0.77
2017-12-15T23:01:26.011Z,0.70
2017-12-15T23:03:53.761Z,0.67
2017-12-15T23:06:21.863Z,0.72
2017-12-15T23:08:49.600Z,0.75
2017-12-15T23:11:17.312Z,0.79
2017-12-15T23:13:45.302Z,0.88
2017-12-15T23:16:13.032Z,0.85
2017-12-15T23:18:40.927Z,0.82
2017-12-15T23:21:08.718Z,0.70
2017-12-15T23:23:36.413Z,0.77
2017-12-15T23:26:04.229Z,0.79
2017-12-15T23:28:32.121Z,0.83
2017-12-15T23:30:59.879Z,0.84
2017-12-15T23:33:27.604Z,0.81
2017-12-15T23:35:55.337Z,0.57
2017-12-15T23:38:23.102Z,0.56
2017-12-15T23:40:50.853Z,0.59
2017-12-15T23:43:18.548Z,0.63
2017-12-15T23:45:46.380Z,0.70
2017-12-15T23:48:14.170Z,0.70
2017-12-15T23:50:42.105Z,0.49
2017-12-15T23:53:09.807Z,0.42
2017-12-15T23:58:41.582Z,0.51
